sensor_id;sensor_type;location;lat;lon;timestamp;P1;durP1;ratioP1;P2;durP2;ratioP2
66494;SDS011;53319;51.982;5.916;2022-07-09T00:00:03;11.65;;;9.20;;
66494;SDS011;53319;51.982;5.916;2022-07-09T00:02:36;12.02;;;9.55;;
66494;SDS011;53319;51.982;5.916;2022-07-09T00:05:05;12.90;;;9.48;;
66494;SDS011;53319;51.982;5.916;2022-07-09T00:07:37;14.07;;;10.13;;
66494;SDS011;53319;51.982;5.916;2022-07-09T00:10:06;15.50;;;11.50;;
66494;SDS011;53319;51.982;5.916;2022-07-09T00:12:36;15.02;;;10.38;;
66494;SDS011;53319;51.982;5.916;2022-07-09T00:15:06;14.23;;;10.45;;
66494;SDS011;53319;51.982;5.916;2022-07-09T00:17:35;17.73;;;10.40;;
66494;SDS011;53319;51.982;5.916;2022-07-09T00:20:05;16.92;;;11.10;;
66494;SDS011;53319;51.982;5.916;2022-07-09T00:22:37;24.58;;;10.60;;
66494;SDS011;53319;51.982;5.916;2022-07-09T00:25:06;36.30;;;11.20;;
66494;SDS011;53319;51.982;5.916;2022-07-09T00:27:35;15.43;;;10.32;;
66494;SDS011;53319;51.982;5.916;2022-07-09T00:30:05;13.73;;;10.07;;
66494;SDS011;53319;51.982;5.916;2022-07-09T00:32:35;16.35;;;11.07;;
66494;SDS011;53319;51.982;5.916;2022-07-09T00:35:05;16.77;;;10.75;;
66494;SDS011;53319;51.982;5.916;2022-07-09T00:37:37;12.90;;;10.50;;
66494;SDS011;53319;51.982;5.916;2022-07-09T00:40:06;14.10;;;10.55;;
66494;SDS011;53319;51.982;5.916;2022-07-09T00:42:36;15.15;;;11.10;;
66494;SDS011;53319;51.982;5.916;2022-07-09T00:45:05;15.50;;;10.75;;
66494;SDS011;53319;51.982;5.916;2022-07-09T00:47:35;13.35;;;9.65;;
66494;SDS011;53319;51.982;5.916;2022-07-09T00:50:05;12.48;;;9.25;;
66494;SDS011;53319;51.982;5.916;2022-07-09T00:52:37;24.65;;;11.82;;
66494;SDS011;53319;51.982;5.916;2022-07-09T00:55:07;19.42;;;12.63;;
66494;SDS011;53319;51.982;5.916;2022-07-09T00:57:37;14.32;;;11.07;;
66494;SDS011;53319;51.982;5.916;2022-07-09T01:00:06;14.70;;;11.32;;
66494;SDS011;53319;51.982;5.916;2022-07-09T01:02:36;13.90;;;11.75;;
66494;SDS011;53319;51.982;5.916;2022-07-09T01:05:06;17.35;;;12.80;;
66494;SDS011;53319;51.982;5.916;2022-07-09T01:07:38;16.05;;;12.25;;
66494;SDS011;53319;51.982;5.916;2022-07-09T01:10:07;15.95;;;11.15;;
66494;SDS011;53319;51.982;5.916;2022-07-09T01:12:37;21.85;;;11.00;;
66494;SDS011;53319;51.982;5.916;2022-07-09T01:15:06;17.63;;;11.73;;
66494;SDS011;53319;51.982;5.916;2022-07-09T01:17:39;24.15;;;12.05;;
66494;SDS011;53319;51.982;5.916;2022-07-09T01:20:08;16.27;;;10.70;;
66494;SDS011;53319;51.982;5.916;2022-07-09T01:22:40;17.67;;;13.23;;
66494;SDS011;53319;51.982;5.916;2022-07-09T01:25:09;19.20;;;12.75;;
66494;SDS011;53319;51.982;5.916;2022-07-09T01:27:43;17.27;;;12.18;;
66494;SDS011;53319;51.982;5.916;2022-07-09T01:30:23;16.98;;;12.07;;
66494;SDS011;53319;51.982;5.916;2022-07-09T01:32:52;20.73;;;12.55;;
66494;SDS011;53319;51.982;5.916;2022-07-09T01:35:21;13.80;;;11.82;;
66494;SDS011;53319;51.982;5.916;2022-07-09T01:37:53;16.38;;;13.15;;
66494;SDS011;53319;51.982;5.916;2022-07-09T01:40:22;16.75;;;11.52;;
66494;SDS011;53319;51.982;5.916;2022-07-09T01:42:52;18.42;;;12.35;;
66494;SDS011;53319;51.982;5.916;2022-07-09T01:45:21;15.20;;;11.93;;
66494;SDS011;53319;51.982;5.916;2022-07-09T01:47:50;15.63;;;11.25;;
66494;SDS011;53319;51.982;5.916;2022-07-09T01:50:19;19.77;;;13.02;;
66494;SDS011;53319;51.982;5.916;2022-07-09T01:52:48;16.83;;;11.55;;
66494;SDS011;53319;51.982;5.916;2022-07-09T01:55:19;14.55;;;11.60;;
66494;SDS011;53319;51.982;5.916;2022-07-09T01:57:48;16.52;;;11.05;;
66494;SDS011;53319;51.982;5.916;2022-07-09T02:00:17;14.93;;;11.93;;
66494;SDS011;53319;51.982;5.916;2022-07-09T02:02:47;16.63;;;11.75;;
66494;SDS011;53319;51.982;5.916;2022-07-09T02:05:16;16.20;;;12.55;;
66494;SDS011;53319;51.982;5.916;2022-07-09T02:07:45;18.38;;;12.95;;
66494;SDS011;53319;51.982;5.916;2022-07-09T02:10:14;15.95;;;12.75;;
66494;SDS011;53319;51.982;5.916;2022-07-09T02:12:46;22.58;;;15.52;;
66494;SDS011;53319;51.982;5.916;2022-07-09T02:15:14;21.40;;;15.20;;
66494;SDS011;53319;51.982;5.916;2022-07-09T02:17:43;20.83;;;14.52;;
66494;SDS011;53319;51.982;5.916;2022-07-09T02:20:12;16.50;;;13.38;;
66494;SDS011;53319;51.982;5.916;2022-07-09T02:22:41;19.85;;;13.30;;
66494;SDS011;53319;51.982;5.916;2022-07-09T02:25:10;18.88;;;13.73;;
66494;SDS011;53319;51.982;5.916;2022-07-09T02:27:39;15.88;;;12.90;;
66494;SDS011;53319;51.982;5.916;2022-07-09T02:30:10;17.73;;;13.00;;
66494;SDS011;53319;51.982;5.916;2022-07-09T02:32:39;21.52;;;12.88;;
66494;SDS011;53319;51.982;5.916;2022-07-09T02:35:09;18.67;;;13.70;;
66494;SDS011;53319;51.982;5.916;2022-07-09T02:37:38;25.08;;;16.27;;
66494;SDS011;53319;51.982;5.916;2022-07-09T02:40:08;17.55;;;13.52;;
66494;SDS011;53319;51.982;5.916;2022-07-09T02:42:40;16.42;;;12.82;;
66494;SDS011;53319;51.982;5.916;2022-07-09T02:45:11;18.67;;;12.57;;
66494;SDS011;53319;51.982;5.916;2022-07-09T02:47:40;18.75;;;13.93;;
66494;SDS011;53319;51.982;5.916;2022-07-09T02:50:09;22.30;;;13.88;;
66494;SDS011;53319;51.982;5.916;2022-07-09T02:52:38;25.80;;;15.38;;
66494;SDS011;53319;51.982;5.916;2022-07-09T02:55:07;28.08;;;17.17;;
66494;SDS011;53319;51.982;5.916;2022-07-09T02:57:36;23.70;;;16.27;;
66494;SDS011;53319;51.982;5.916;2022-07-09T03:00:05;18.38;;;13.25;;
66494;SDS011;53319;51.982;5.916;2022-07-09T03:02:38;21.52;;;11.98;;
66494;SDS011;53319;51.982;5.916;2022-07-09T03:05:07;19.27;;;12.65;;
66494;SDS011;53319;51.982;5.916;2022-07-09T03:07:36;20.55;;;13.20;;
66494;SDS011;53319;51.982;5.916;2022-07-09T03:10:06;17.75;;;12.90;;
66494;SDS011;53319;51.982;5.916;2022-07-09T03:12:35;17.25;;;12.13;;
66494;SDS011;53319;51.982;5.916;2022-07-09T03:15:06;15.52;;;12.50;;
66494;SDS011;53319;51.982;5.916;2022-07-09T03:17:38;18.33;;;13.50;;
66494;SDS011;53319;51.982;5.916;2022-07-09T03:20:08;20.10;;;13.77;;
66494;SDS011;53319;51.982;5.916;2022-07-09T03:22:38;20.33;;;13.00;;
66494;SDS011;53319;51.982;5.916;2022-07-09T03:25:08;17.08;;;12.75;;
66494;SDS011;53319;51.982;5.916;2022-07-09T03:27:37;17.77;;;13.60;;
66494;SDS011;53319;51.982;5.916;2022-07-09T03:30:06;19.38;;;13.13;;
66494;SDS011;53319;51.982;5.916;2022-07-09T03:32:39;17.00;;;13.13;;
66494;SDS011;53319;51.982;5.916;2022-07-09T03:35:08;17.63;;;12.93;;
66494;SDS011;53319;51.982;5.916;2022-07-09T03:37:37;19.38;;;14.07;;
66494;SDS011;53319;51.982;5.916;2022-07-09T03:40:06;19.58;;;13.70;;
66494;SDS011;53319;51.982;5.916;2022-07-09T03:42:36;19.88;;;13.20;;
66494;SDS011;53319;51.982;5.916;2022-07-09T03:45:05;18.77;;;12.35;;
66494;SDS011;53319;51.982;5.916;2022-07-09T03:47:35;16.52;;;13.00;;
66494;SDS011;53319;51.982;5.916;2022-07-09T03:50:07;16.42;;;12.32;;
66494;SDS011;53319;51.982;5.916;2022-07-09T03:52:37;16.45;;;13.13;;
66494;SDS011;53319;51.982;5.916;2022-07-09T03:55:06;16.40;;;12.80;;
66494;SDS011;53319;51.982;5.916;2022-07-09T03:57:37;14.75;;;11.68;;
66494;SDS011;53319;51.982;5.916;2022-07-09T04:00:07;16.08;;;12.00;;
66494;SDS011;53319;51.982;5.916;2022-07-09T04:02:39;15.68;;;11.27;;
66494;SDS011;53319;51.982;5.916;2022-07-09T04:05:10;15.65;;;10.90;;
66494;SDS011;53319;51.982;5.916;2022-07-09T04:07:39;13.57;;;10.93;;
66494;SDS011;53319;51.982;5.916;2022-07-09T04:10:08;15.18;;;11.00;;
66494;SDS011;53319;51.982;5.916;2022-07-09T04:12:37;16.60;;;11.85;;
66494;SDS011;53319;51.982;5.916;2022-07-09T04:15:07;13.50;;;10.82;;
66494;SDS011;53319;51.982;5.916;2022-07-09T04:17:36;16.55;;;11.63;;
66494;SDS011;53319;51.982;5.916;2022-07-09T04:20:05;15.43;;;10.98;;
66494;SDS011;53319;51.982;5.916;2022-07-09T04:22:38;17.90;;;10.90;;
66494;SDS011;53319;51.982;5.916;2022-07-09T04:25:07;14.30;;;10.57;;
66494;SDS011;53319;51.982;5.916;2022-07-09T04:27:36;16.15;;;11.63;;
66494;SDS011;53319;51.982;5.916;2022-07-09T04:30:06;17.25;;;12.38;;
66494;SDS011;53319;51.982;5.916;2022-07-09T04:32:35;16.42;;;11.48;;
66494;SDS011;53319;51.982;5.916;2022-07-09T04:35:05;16.88;;;12.23;;
66494;SDS011;53319;51.982;5.916;2022-07-09T04:37:34;23.25;;;14.98;;
66494;SDS011;53319;51.982;5.916;2022-07-09T04:40:06;22.42;;;12.30;;
66494;SDS011;53319;51.982;5.916;2022-07-09T04:42:36;17.08;;;11.50;;
66494;SDS011;53319;51.982;5.916;2022-07-09T04:45:05;19.02;;;12.60;;
66494;SDS011;53319;51.982;5.916;2022-07-09T04:47:36;16.95;;;12.13;;
66494;SDS011;53319;51.982;5.916;2022-07-09T04:50:05;20.10;;;12.20;;
66494;SDS011;53319;51.982;5.916;2022-07-09T04:52:36;17.60;;;13.13;;
66494;SDS011;53319;51.982;5.916;2022-07-09T04:55:08;18.90;;;14.07;;
66494;SDS011;53319;51.982;5.916;2022-07-09T04:57:37;21.27;;;14.43;;
66494;SDS011;53319;51.982;5.916;2022-07-09T05:00:07;20.33;;;15.02;;
66494;SDS011;53319;51.982;5.916;2022-07-09T05:02:37;20.90;;;14.23;;
66494;SDS011;53319;51.982;5.916;2022-07-09T05:05:07;19.90;;;15.02;;
66494;SDS011;53319;51.982;5.916;2022-07-09T05:07:36;21.95;;;15.70;;
66494;SDS011;53319;51.982;5.916;2022-07-09T05:10:08;23.38;;;16.13;;
66494;SDS011;53319;51.982;5.916;2022-07-09T05:12:37;22.45;;;15.70;;
66494;SDS011;53319;51.982;5.916;2022-07-09T05:15:07;25.38;;;16.13;;
66494;SDS011;53319;51.982;5.916;2022-07-09T05:17:37;24.73;;;17.33;;
66494;SDS011;53319;51.982;5.916;2022-07-09T05:20:07;27.55;;;16.65;;
66494;SDS011;53319;51.982;5.916;2022-07-09T05:22:37;21.73;;;15.85;;
66494;SDS011;53319;51.982;5.916;2022-07-09T05:25:09;23.55;;;17.65;;
66494;SDS011;53319;51.982;5.916;2022-07-09T05:27:41;26.08;;;17.75;;
66494;SDS011;53319;51.982;5.916;2022-07-09T05:30:10;26.85;;;18.08;;
66494;SDS011;53319;51.982;5.916;2022-07-09T05:32:41;27.20;;;17.38;;
66494;SDS011;53319;51.982;5.916;2022-07-09T05:35:10;26.85;;;18.17;;
66494;SDS011;53319;51.982;5.916;2022-07-09T05:37:43;27.73;;;18.13;;
66494;SDS011;53319;51.982;5.916;2022-07-09T05:40:15;24.10;;;16.65;;
66494;SDS011;53319;51.982;5.916;2022-07-09T05:42:44;25.77;;;17.80;;
66494;SDS011;53319;51.982;5.916;2022-07-09T05:45:13;23.60;;;16.70;;
66494;SDS011;53319;51.982;5.916;2022-07-09T05:47:42;26.60;;;17.52;;
66494;SDS011;53319;51.982;5.916;2022-07-09T05:50:11;24.15;;;16.88;;
66494;SDS011;53319;51.982;5.916;2022-07-09T05:52:40;24.05;;;16.33;;
66494;SDS011;53319;51.982;5.916;2022-07-09T05:55:09;27.60;;;17.85;;
66494;SDS011;53319;51.982;5.916;2022-07-09T05:57:40;25.35;;;16.48;;
66494;SDS011;53319;51.982;5.916;2022-07-09T06:00:09;22.52;;;15.65;;
66494;SDS011;53319;51.982;5.916;2022-07-09T06:02:39;23.48;;;16.85;;
66494;SDS011;53319;51.982;5.916;2022-07-09T06:05:08;22.02;;;15.95;;
66494;SDS011;53319;51.982;5.916;2022-07-09T06:07:37;22.20;;;16.58;;
66494;SDS011;53319;51.982;5.916;2022-07-09T06:10:10;21.92;;;15.27;;
66494;SDS011;53319;51.982;5.916;2022-07-09T06:12:45;21.43;;;15.20;;
66494;SDS011;53319;51.982;5.916;2022-07-09T06:15:14;21.88;;;14.50;;
66494;SDS011;53319;51.982;5.916;2022-07-09T06:17:43;19.23;;;14.63;;
66494;SDS011;53319;51.982;5.916;2022-07-09T06:20:11;19.23;;;14.73;;
66494;SDS011;53319;51.982;5.916;2022-07-09T06:22:41;19.15;;;13.15;;
66494;SDS011;53319;51.982;5.916;2022-07-09T06:25:10;17.92;;;12.50;;
66494;SDS011;53319;51.982;5.916;2022-07-09T06:27:39;18.30;;;12.43;;
66494;SDS011;53319;51.982;5.916;2022-07-09T06:30:11;18.02;;;12.52;;
66494;SDS011;53319;51.982;5.916;2022-07-09T06:32:40;17.42;;;12.85;;
66494;SDS011;53319;51.982;5.916;2022-07-09T06:35:09;19.25;;;12.95;;
66494;SDS011;53319;51.982;5.916;2022-07-09T06:37:38;17.45;;;13.52;;
66494;SDS011;53319;51.982;5.916;2022-07-09T06:40:07;33.03;;;14.73;;
66494;SDS011;53319;51.982;5.916;2022-07-09T06:42:38;20.50;;;14.15;;
66494;SDS011;53319;51.982;5.916;2022-07-09T06:45:23;18.77;;;12.90;;
66494;SDS011;53319;51.982;5.916;2022-07-09T06:47:52;16.33;;;11.80;;
66494;SDS011;53319;51.982;5.916;2022-07-09T06:50:21;19.50;;;12.02;;
66494;SDS011;53319;51.982;5.916;2022-07-09T06:52:50;17.40;;;11.23;;
66494;SDS011;53319;51.982;5.916;2022-07-09T06:55:19;14.80;;;10.73;;
66494;SDS011;53319;51.982;5.916;2022-07-09T06:57:48;14.60;;;10.98;;
66494;SDS011;53319;51.982;5.916;2022-07-09T07:00:16;12.85;;;10.50;;
66494;SDS011;53319;51.982;5.916;2022-07-09T07:02:48;14.02;;;9.95;;
66494;SDS011;53319;51.982;5.916;2022-07-09T07:05:17;15.65;;;9.52;;
66494;SDS011;53319;51.982;5.916;2022-07-09T07:07:46;13.60;;;8.23;;
66494;SDS011;53319;51.982;5.916;2022-07-09T07:10:15;11.27;;;7.68;;
66494;SDS011;53319;51.982;5.916;2022-07-09T07:12:44;12.48;;;9.00;;
66494;SDS011;53319;51.982;5.916;2022-07-09T07:15:13;18.70;;;8.95;;
66494;SDS011;53319;51.982;5.916;2022-07-09T07:17:41;18.95;;;10.25;;
66494;SDS011;53319;51.982;5.916;2022-07-09T07:20:13;14.90;;;10.18;;
66494;SDS011;53319;51.982;5.916;2022-07-09T07:22:45;8.70;;;6.68;;
66494;SDS011;53319;51.982;5.916;2022-07-09T07:25:14;11.18;;;7.90;;
66494;SDS011;53319;51.982;5.916;2022-07-09T07:27:42;10.65;;;7.63;;
66494;SDS011;53319;51.982;5.916;2022-07-09T07:30:11;11.73;;;7.93;;
66494;SDS011;53319;51.982;5.916;2022-07-09T07:32:40;13.05;;;6.43;;
66494;SDS011;53319;51.982;5.916;2022-07-09T07:35:09;11.93;;;7.55;;
66494;SDS011;53319;51.982;5.916;2022-07-09T07:37:40;11.63;;;8.48;;
66494;SDS011;53319;51.982;5.916;2022-07-09T07:40:10;11.45;;;9.27;;
66494;SDS011;53319;51.982;5.916;2022-07-09T07:42:40;12.70;;;10.00;;
66494;SDS011;53319;51.982;5.916;2022-07-09T07:45:09;12.32;;;9.20;;
66494;SDS011;53319;51.982;5.916;2022-07-09T07:47:39;13.95;;;8.68;;
66494;SDS011;53319;51.982;5.916;2022-07-09T07:50:08;11.20;;;8.18;;
66494;SDS011;53319;51.982;5.916;2022-07-09T07:52:37;11.80;;;8.52;;
66494;SDS011;53319;51.982;5.916;2022-07-09T07:55:09;20.17;;;8.18;;
66494;SDS011;53319;51.982;5.916;2022-07-09T07:57:38;11.88;;;8.20;;
66494;SDS011;53319;51.982;5.916;2022-07-09T08:00:07;13.88;;;9.32;;
66494;SDS011;53319;51.982;5.916;2022-07-09T08:05:08;12.98;;;8.73;;
66494;SDS011;53319;51.982;5.916;2022-07-09T08:07:37;10.27;;;8.13;;
66494;SDS011;53319;51.982;5.916;2022-07-09T08:10:09;16.42;;;9.15;;
66494;SDS011;53319;51.982;5.916;2022-07-09T08:12:38;18.25;;;8.65;;
66494;SDS011;53319;51.982;5.916;2022-07-09T08:15:07;10.93;;;7.28;;
66494;SDS011;53319;51.982;5.916;2022-07-09T08:17:37;12.95;;;7.97;;
66494;SDS011;53319;51.982;5.916;2022-07-09T08:20:07;8.30;;;5.93;;
66494;SDS011;53319;51.982;5.916;2022-07-09T08:22:37;7.57;;;5.40;;
66494;SDS011;53319;51.982;5.916;2022-07-09T08:25:08;10.57;;;5.32;;
66494;SDS011;53319;51.982;5.916;2022-07-09T08:27:38;7.07;;;4.95;;
66494;SDS011;53319;51.982;5.916;2022-07-09T08:30:07;6.38;;;5.05;;
66494;SDS011;53319;51.982;5.916;2022-07-09T08:32:36;9.55;;;5.40;;
66494;SDS011;53319;51.982;5.916;2022-07-09T08:35:06;7.85;;;5.43;;
66494;SDS011;53319;51.982;5.916;2022-07-09T08:37:37;10.80;;;5.63;;
66494;SDS011;53319;51.982;5.916;2022-07-09T08:40:08;9.10;;;5.78;;
66494;SDS011;53319;51.982;5.916;2022-07-09T08:45:08;7.82;;;6.05;;
66494;SDS011;53319;51.982;5.916;2022-07-09T08:47:41;8.02;;;5.90;;
66494;SDS011;53319;51.982;5.916;2022-07-09T08:50:10;9.20;;;6.32;;
66494;SDS011;53319;51.982;5.916;2022-07-09T08:52:40;9.93;;;6.55;;
66494;SDS011;53319;51.982;5.916;2022-07-09T08:55:12;9.82;;;6.60;;
66494;SDS011;53319;51.982;5.916;2022-07-09T08:57:41;15.60;;;7.40;;
66494;SDS011;53319;51.982;5.916;2022-07-09T09:00:10;8.93;;;6.25;;
66494;SDS011;53319;51.982;5.916;2022-07-09T09:02:40;9.77;;;6.80;;
66494;SDS011;53319;51.982;5.916;2022-07-09T09:05:09;12.52;;;8.13;;
66494;SDS011;53319;51.982;5.916;2022-07-09T09:07:40;10.48;;;7.20;;
66494;SDS011;53319;51.982;5.916;2022-07-09T09:10:22;12.73;;;7.05;;
66494;SDS011;53319;51.982;5.916;2022-07-09T09:12:55;13.02;;;9.38;;
66494;SDS011;53319;51.982;5.916;2022-07-09T09:15:24;13.82;;;10.90;;
66494;SDS011;53319;51.982;5.916;2022-07-09T09:17:54;18.25;;;10.90;;
66494;SDS011;53319;51.982;5.916;2022-07-09T09:20:23;16.60;;;11.63;;
66494;SDS011;53319;51.982;5.916;2022-07-09T09:22:53;14.35;;;11.07;;
66494;SDS011;53319;51.982;5.916;2022-07-09T09:25:28;15.52;;;12.05;;
66494;SDS011;53319;51.982;5.916;2022-07-09T09:27:57;16.08;;;13.35;;
66494;SDS011;53319;51.982;5.916;2022-07-09T09:30:29;16.75;;;14.88;;
66494;SDS011;53319;51.982;5.916;2022-07-09T09:32:59;18.92;;;16.30;;
66494;SDS011;53319;51.982;5.916;2022-07-09T09:35:33;17.95;;;16.13;;
66494;SDS011;53319;51.982;5.916;2022-07-09T09:38:03;18.95;;;14.35;;
66494;SDS011;53319;51.982;5.916;2022-07-09T09:40:35;19.23;;;17.20;;
66494;SDS011;53319;51.982;5.916;2022-07-09T09:43:05;19.55;;;17.60;;
66494;SDS011;53319;51.982;5.916;2022-07-09T09:45:35;19.30;;;16.60;;
66494;SDS011;53319;51.982;5.916;2022-07-09T09:48:05;19.63;;;17.10;;
66494;SDS011;53319;51.982;5.916;2022-07-09T09:50:34;15.20;;;13.60;;
66494;SDS011;53319;51.982;5.916;2022-07-09T09:53:03;20.85;;;16.42;;
66494;SDS011;53319;51.982;5.916;2022-07-09T09:55:35;17.80;;;15.63;;
66494;SDS011;53319;51.982;5.916;2022-07-09T09:58:05;16.90;;;14.82;;
66494;SDS011;53319;51.982;5.916;2022-07-09T10:00:35;16.58;;;14.65;;
66494;SDS011;53319;51.982;5.916;2022-07-09T10:03:04;15.85;;;13.52;;
66494;SDS011;53319;51.982;5.916;2022-07-09T10:05:34;15.15;;;12.70;;
66494;SDS011;53319;51.982;5.916;2022-07-09T10:08:04;12.43;;;11.00;;
66494;SDS011;53319;51.982;5.916;2022-07-09T10:10:36;12.38;;;10.65;;
66494;SDS011;53319;51.982;5.916;2022-07-09T10:13:05;12.40;;;10.55;;
66494;SDS011;53319;51.982;5.916;2022-07-09T10:15:34;10.77;;;8.30;;
66494;SDS011;53319;51.982;5.916;2022-07-09T10:18:09;12.95;;;9.13;;
66494;SDS011;53319;51.982;5.916;2022-07-09T10:20:39;8.77;;;6.63;;
66494;SDS011;53319;51.982;5.916;2022-07-09T10:23:19;10.50;;;6.22;;
66494;SDS011;53319;51.982;5.916;2022-07-09T10:25:52;11.80;;;5.80;;
66494;SDS011;53319;51.982;5.916;2022-07-09T10:28:21;24.65;;;5.68;;
66494;SDS011;53319;51.982;5.916;2022-07-09T10:30:51;6.53;;;4.40;;
66494;SDS011;53319;51.982;5.916;2022-07-09T10:33:23;3.45;;;3.15;;
66494;SDS011;53319;51.982;5.916;2022-07-09T10:36:08;4.60;;;3.22;;
66494;SDS011;53319;51.982;5.916;2022-07-09T10:38:38;12.23;;;3.45;;
66494;SDS011;53319;51.982;5.916;2022-07-09T10:41:09;4.65;;;3.35;;
66494;SDS011;53319;51.982;5.916;2022-07-09T10:43:49;3.67;;;2.58;;
66494;SDS011;53319;51.982;5.916;2022-07-09T10:46:19;8.80;;;3.50;;
66494;SDS011;53319;51.982;5.916;2022-07-09T10:48:48;13.05;;;3.50;;
66494;SDS011;53319;51.982;5.916;2022-07-09T10:51:17;4.60;;;2.90;;
66494;SDS011;53319;51.982;5.916;2022-07-09T10:53:47;7.05;;;2.80;;
66494;SDS011;53319;51.982;5.916;2022-07-09T10:56:19;8.02;;;2.60;;
66494;SDS011;53319;51.982;5.916;2022-07-09T10:58:50;5.18;;;2.88;;
66494;SDS011;53319;51.982;5.916;2022-07-09T11:01:19;9.20;;;2.45;;
66494;SDS011;53319;51.982;5.916;2022-07-09T11:03:50;6.65;;;2.05;;
66494;SDS011;53319;51.982;5.916;2022-07-09T11:06:19;3.40;;;2.00;;
66494;SDS011;53319;51.982;5.916;2022-07-09T11:08:48;5.18;;;2.25;;
66494;SDS011;53319;51.982;5.916;2022-07-09T11:11:23;13.25;;;2.47;;
66494;SDS011;53319;51.982;5.916;2022-07-09T11:13:52;9.05;;;1.90;;
66494;SDS011;53319;51.982;5.916;2022-07-09T11:16:22;3.67;;;1.80;;
66494;SDS011;53319;51.982;5.916;2022-07-09T11:18:52;3.90;;;1.90;;
66494;SDS011;53319;51.982;5.916;2022-07-09T11:21:23;6.57;;;1.92;;
66494;SDS011;53319;51.982;5.916;2022-07-09T11:23:52;2.72;;;1.50;;
66494;SDS011;53319;51.982;5.916;2022-07-09T11:26:23;5.32;;;1.88;;
66494;SDS011;53319;51.982;5.916;2022-07-09T11:28:52;2.97;;;1.70;;
66494;SDS011;53319;51.982;5.916;2022-07-09T11:31:21;4.25;;;1.50;;
66494;SDS011;53319;51.982;5.916;2022-07-09T11:33:50;4.20;;;2.03;;
66494;SDS011;53319;51.982;5.916;2022-07-09T11:36:35;4.28;;;1.60;;
66494;SDS011;53319;51.982;5.916;2022-07-09T11:39:05;3.30;;;1.30;;
66494;SDS011;53319;51.982;5.916;2022-07-09T11:41:43;2.92;;;1.20;;
66494;SDS011;53319;51.982;5.916;2022-07-09T11:44:19;16.65;;;2.05;;
66494;SDS011;53319;51.982;5.916;2022-07-09T11:47:05;3.33;;;1.30;;
66494;SDS011;53319;51.982;5.916;2022-07-09T11:49:35;2.90;;;1.50;;
66494;SDS011;53319;51.982;5.916;2022-07-09T11:52:16;7.40;;;1.67;;
66494;SDS011;53319;51.982;5.916;2022-07-09T11:54:56;2.22;;;1.00;;
66494;SDS011;53319;51.982;5.916;2022-07-09T11:57:28;3.95;;;1.00;;
66494;SDS011;53319;51.982;5.916;2022-07-09T11:59:58;9.18;;;1.52;;
66494;SDS011;53319;51.982;5.916;2022-07-09T12:02:31;2.65;;;1.50;;
66494;SDS011;53319;51.982;5.916;2022-07-09T12:05:01;3.28;;;1.52;;
66494;SDS011;53319;51.982;5.916;2022-07-09T12:07:32;2.47;;;1.35;;
66494;SDS011;53319;51.982;5.916;2022-07-09T12:10:03;7.20;;;1.30;;
66494;SDS011;53319;51.982;5.916;2022-07-09T12:12:37;1.63;;;1.00;;
66494;SDS011;53319;51.982;5.916;2022-07-09T12:15:06;8.45;;;1.90;;
66494;SDS011;53319;51.982;5.916;2022-07-09T12:17:36;3.90;;;1.67;;
66494;SDS011;53319;51.982;5.916;2022-07-09T12:20:06;4.85;;;1.30;;
66494;SDS011;53319;51.982;5.916;2022-07-09T12:22:36;16.17;;;2.25;;
66494;SDS011;53319;51.982;5.916;2022-07-09T12:25:05;4.65;;;1.98;;
66494;SDS011;53319;51.982;5.916;2022-07-09T12:27:37;6.72;;;1.60;;
66494;SDS011;53319;51.982;5.916;2022-07-09T12:30:07;41.53;;;4.80;;
66494;SDS011;53319;51.982;5.916;2022-07-09T12:32:36;3.95;;;1.60;;
66494;SDS011;53319;51.982;5.916;2022-07-09T12:35:06;5.40;;;1.30;;
66494;SDS011;53319;51.982;5.916;2022-07-09T12:37:37;4.03;;;1.83;;
66494;SDS011;53319;51.982;5.916;2022-07-09T12:40:07;5.32;;;1.77;;
66494;SDS011;53319;51.982;5.916;2022-07-09T12:42:40;2.80;;;1.50;;
66494;SDS011;53319;51.982;5.916;2022-07-09T12:45:09;3.15;;;1.55;;
66494;SDS011;53319;51.982;5.916;2022-07-09T12:47:39;2.60;;;1.33;;
66494;SDS011;53319;51.982;5.916;2022-07-09T12:50:08;3.83;;;1.50;;
66494;SDS011;53319;51.982;5.916;2022-07-09T12:52:38;3.55;;;1.45;;
66494;SDS011;53319;51.982;5.916;2022-07-09T12:55:07;7.30;;;1.90;;
66494;SDS011;53319;51.982;5.916;2022-07-09T12:57:36;10.60;;;2.25;;
66494;SDS011;53319;51.982;5.916;2022-07-09T13:00:08;5.10;;;1.52;;
66494;SDS011;53319;51.982;5.916;2022-07-09T13:02:39;6.82;;;1.50;;
66494;SDS011;53319;51.982;5.916;2022-07-09T13:05:08;18.65;;;2.17;;
66494;SDS011;53319;51.982;5.916;2022-07-09T13:07:40;4.75;;;1.65;;
66494;SDS011;53319;51.982;5.916;2022-07-09T13:10:09;6.80;;;1.50;;
66494;SDS011;53319;51.982;5.916;2022-07-09T13:12:38;25.30;;;2.05;;
66494;SDS011;53319;51.982;5.916;2022-07-09T13:15:10;4.97;;;1.30;;
66494;SDS011;53319;51.982;5.916;2022-07-09T13:17:39;36.42;;;3.60;;
66494;SDS011;53319;51.982;5.916;2022-07-09T13:20:08;3.83;;;1.17;;
66494;SDS011;53319;51.982;5.916;2022-07-09T13:22:37;6.82;;;1.50;;
66494;SDS011;53319;51.982;5.916;2022-07-09T13:25:06;6.45;;;1.30;;
66494;SDS011;53319;51.982;5.916;2022-07-09T13:27:38;2.53;;;1.10;;
66494;SDS011;53319;51.982;5.916;2022-07-09T13:30:10;8.57;;;1.45;;
66494;SDS011;53319;51.982;5.916;2022-07-09T13:32:45;4.75;;;1.17;;
66494;SDS011;53319;51.982;5.916;2022-07-09T13:35:14;5.60;;;1.60;;
66494;SDS011;53319;51.982;5.916;2022-07-09T13:37:43;6.03;;;1.40;;
66494;SDS011;53319;51.982;5.916;2022-07-09T13:40:12;6.22;;;1.20;;
66494;SDS011;53319;51.982;5.916;2022-07-09T13:42:41;4.03;;;1.20;;
66494;SDS011;53319;51.982;5.916;2022-07-09T13:45:12;3.40;;;1.25;;
66494;SDS011;53319;51.982;5.916;2022-07-09T13:47:41;2.17;;;0.90;;
66494;SDS011;53319;51.982;5.916;2022-07-09T13:50:10;10.75;;;1.65;;
66494;SDS011;53319;51.982;5.916;2022-07-09T13:52:39;25.25;;;2.97;;
66494;SDS011;53319;51.982;5.916;2022-07-09T13:55:08;5.38;;;1.40;;
66494;SDS011;53319;51.982;5.916;2022-07-09T13:57:37;9.90;;;1.40;;
66494;SDS011;53319;51.982;5.916;2022-07-09T14:00:06;11.90;;;1.95;;
66494;SDS011;53319;51.982;5.916;2022-07-09T14:02:39;5.25;;;1.20;;
66494;SDS011;53319;51.982;5.916;2022-07-09T14:05:08;6.97;;;1.30;;
66494;SDS011;53319;51.982;5.916;2022-07-09T14:07:37;3.38;;;1.10;;
66494;SDS011;53319;51.982;5.916;2022-07-09T14:10:06;15.68;;;2.40;;
66494;SDS011;53319;51.982;5.916;2022-07-09T14:12:35;11.75;;;1.52;;
66494;SDS011;53319;51.982;5.916;2022-07-09T14:15:05;19.80;;;2.08;;
66494;SDS011;53319;51.982;5.916;2022-07-09T14:17:34;20.10;;;2.35;;
66494;SDS011;53319;51.982;5.916;2022-07-09T14:20:06;6.38;;;1.20;;
66494;SDS011;53319;51.982;5.916;2022-07-09T14:25:05;1.92;;;1.42;;
66494;SDS011;53319;51.982;5.916;2022-07-09T14:27:34;5.90;;;1.80;;
66494;SDS011;53319;51.982;5.916;2022-07-09T14:30:03;6.10;;;1.38;;
66494;SDS011;53319;51.982;5.916;2022-07-09T14:32:33;4.15;;;1.33;;
66494;SDS011;53319;51.982;5.916;2022-07-09T14:35:02;1.80;;;1.00;;
66494;SDS011;53319;51.982;5.916;2022-07-09T14:37:34;3.92;;;2.03;;
66494;SDS011;53319;51.982;5.916;2022-07-09T14:40:03;35.08;;;4.00;;
66494;SDS011;53319;51.982;5.916;2022-07-09T14:42:33;6.32;;;1.20;;
66494;SDS011;53319;51.982;5.916;2022-07-09T14:45:02;2.50;;;1.60;;
66494;SDS011;53319;51.982;5.916;2022-07-09T14:47:31;3.60;;;1.30;;
66494;SDS011;53319;51.982;5.916;2022-07-09T14:50:00;4.15;;;1.60;;
66494;SDS011;53319;51.982;5.916;2022-07-09T14:52:29;12.27;;;2.60;;
66494;SDS011;53319;51.982;5.916;2022-07-09T14:55:00;4.28;;;1.48;;